sensor_id;sensor_type;location;lat;lon;timestamp;P1;durP1;ratioP1;P2;durP2;ratioP2
54835;SDS011;43486;43.574;1.476;2022-12-07T00:03:49;14.48;;;7.60;;
54835;SDS011;43486;43.574;1.476;2022-12-07T00:06:16;17.17;;;9.18;;
54835;SDS011;43486;43.574;1.476;2022-12-07T00:08:42;11.50;;;7.22;;
54835;SDS011;43486;43.574;1.476;2022-12-07T00:11:08;17.17;;;9.77;;
54835;SDS011;43486;43.574;1.476;2022-12-07T00:13:36;16.55;;;7.57;;
54835;SDS011;43486;43.574;1.476;2022-12-07T00:16:12;14.23;;;8.48;;
54835;SDS011;43486;43.574;1.476;2022-12-07T00:18:41;16.20;;;8.05;;
54835;SDS011;43486;43.574;1.476;2022-12-07T00:21:11;12.45;;;8.10;;
54835;SDS011;43486;43.574;1.476;2022-12-07T00:23:43;27.77;;;11.38;;
54835;SDS011;43486;43.574;1.476;2022-12-07T00:26:11;16.75;;;7.68;;
54835;SDS011;43486;43.574;1.476;2022-12-07T00:28:40;16.33;;;9.40;;
54835;SDS011;43486;43.574;1.476;2022-12-07T00:31:06;11.23;;;7.82;;
54835;SDS011;43486;43.574;1.476;2022-12-07T00:33:34;16.48;;;9.32;;
54835;SDS011;43486;43.574;1.476;2022-12-07T00:36:00;16.77;;;8.57;;
54835;SDS011;43486;43.574;1.476;2022-12-07T00:38:27;12.07;;;8.32;;
54835;SDS011;43486;43.574;1.476;2022-12-07T00:40:57;15.30;;;10.20;;
54835;SDS011;43486;43.574;1.476;2022-12-07T00:43:24;17.13;;;9.65;;
54835;SDS011;43486;43.574;1.476;2022-12-07T00:45:49;15.15;;;9.00;;
54835;SDS011;43486;43.574;1.476;2022-12-07T00:48:14;11.38;;;8.60;;
54835;SDS011;43486;43.574;1.476;2022-12-07T00:50:40;14.52;;;8.63;;
54835;SDS011;43486;43.574;1.476;2022-12-07T00:53:05;20.42;;;9.85;;
54835;SDS011;43486;43.574;1.476;2022-12-07T00:55:34;16.10;;;8.48;;
54835;SDS011;43486;43.574;1.476;2022-12-07T00:58:00;18.10;;;9.27;;
54835;SDS011;43486;43.574;1.476;2022-12-07T01:00:25;14.25;;;8.27;;
54835;SDS011;43486;43.574;1.476;2022-12-07T01:02:51;14.20;;;8.57;;
54835;SDS011;43486;43.574;1.476;2022-12-07T01:05:17;14.38;;;8.73;;
54835;SDS011;43486;43.574;1.476;2022-12-07T01:07:42;14.35;;;7.88;;
54835;SDS011;43486;43.574;1.476;2022-12-07T01:10:08;16.58;;;8.35;;
54835;SDS011;43486;43.574;1.476;2022-12-07T01:12:33;11.88;;;7.75;;
54835;SDS011;43486;43.574;1.476;2022-12-07T01:14:59;14.10;;;8.15;;
54835;SDS011;43486;43.574;1.476;2022-12-07T01:17:24;14.60;;;8.35;;
54835;SDS011;43486;43.574;1.476;2022-12-07T01:19:50;13.57;;;9.15;;
54835;SDS011;43486;43.574;1.476;2022-12-07T01:22:15;13.40;;;7.93;;
54835;SDS011;43486;43.574;1.476;2022-12-07T01:24:40;17.17;;;9.48;;
54835;SDS011;43486;43.574;1.476;2022-12-07T01:27:06;15.05;;;9.23;;
54835;SDS011;43486;43.574;1.476;2022-12-07T01:29:31;18.63;;;11.50;;
54835;SDS011;43486;43.574;1.476;2022-12-07T01:31:56;14.07;;;8.82;;
54835;SDS011;43486;43.574;1.476;2022-12-07T01:34:22;15.35;;;8.95;;
54835;SDS011;43486;43.574;1.476;2022-12-07T01:36:47;13.75;;;8.65;;
54835;SDS011;43486;43.574;1.476;2022-12-07T01:39:13;14.82;;;9.18;;
54835;SDS011;43486;43.574;1.476;2022-12-07T01:41:39;15.00;;;7.97;;
54835;SDS011;43486;43.574;1.476;2022-12-07T01:46:45;15.68;;;9.23;;
54835;SDS011;43486;43.574;1.476;2022-12-07T01:49:16;16.63;;;7.88;;
54835;SDS011;43486;43.574;1.476;2022-12-07T01:51:45;13.40;;;7.75;;
54835;SDS011;43486;43.574;1.476;2022-12-07T01:54:12;13.65;;;9.07;;
54835;SDS011;43486;43.574;1.476;2022-12-07T01:56:39;18.40;;;8.70;;
54835;SDS011;43486;43.574;1.476;2022-12-07T01:59:05;15.30;;;8.40;;
54835;SDS011;43486;43.574;1.476;2022-12-07T02:01:31;12.35;;;7.95;;
54835;SDS011;43486;43.574;1.476;2022-12-07T02:03:56;13.90;;;9.70;;
54835;SDS011;43486;43.574;1.476;2022-12-07T02:06:24;14.65;;;9.65;;
54835;SDS011;43486;43.574;1.476;2022-12-07T02:08:51;17.88;;;9.25;;
54835;SDS011;43486;43.574;1.476;2022-12-07T02:11:16;13.02;;;8.52;;
54835;SDS011;43486;43.574;1.476;2022-12-07T02:13:42;12.35;;;7.82;;
54835;SDS011;43486;43.574;1.476;2022-12-07T02:22:01;10.88;;;6.53;;
54835;SDS011;43486;43.574;1.476;2022-12-07T02:24:41;16.15;;;10.35;;
54835;SDS011;43486;43.574;1.476;2022-12-07T02:27:49;15.00;;;7.82;;
54835;SDS011;43486;43.574;1.476;2022-12-07T02:30:19;14.48;;;8.23;;
54835;SDS011;43486;43.574;1.476;2022-12-07T02:35:48;16.20;;;8.48;;
54835;SDS011;43486;43.574;1.476;2022-12-07T02:43:39;14.30;;;8.35;;
54835;SDS011;43486;43.574;1.476;2022-12-07T02:46:16;14.15;;;9.95;;
54835;SDS011;43486;43.574;1.476;2022-12-07T02:48:44;16.15;;;9.23;;
54835;SDS011;43486;43.574;1.476;2022-12-07T02:51:10;16.20;;;9.68;;
54835;SDS011;43486;43.574;1.476;2022-12-07T02:53:37;16.95;;;8.32;;
54835;SDS011;43486;43.574;1.476;2022-12-07T03:02:16;11.38;;;8.13;;
54835;SDS011;43486;43.574;1.476;2022-12-07T03:10:12;15.35;;;8.57;;
54835;SDS011;43486;43.574;1.476;2022-12-07T03:12:45;15.80;;;9.82;;
54835;SDS011;43486;43.574;1.476;2022-12-07T03:15:14;16.70;;;9.65;;
54835;SDS011;43486;43.574;1.476;2022-12-07T03:17:44;16.15;;;7.68;;
54835;SDS011;43486;43.574;1.476;2022-12-07T03:20:12;11.95;;;8.30;;
54835;SDS011;43486;43.574;1.476;2022-12-07T03:22:39;13.05;;;8.57;;
54835;SDS011;43486;43.574;1.476;2022-12-07T03:25:08;13.93;;;9.32;;
54835;SDS011;43486;43.574;1.476;2022-12-07T03:27:57;16.48;;;8.32;;
54835;SDS011;43486;43.574;1.476;2022-12-07T03:30:30;12.63;;;8.10;;
54835;SDS011;43486;43.574;1.476;2022-12-07T03:33:01;14.35;;;8.48;;
54835;SDS011;43486;43.574;1.476;2022-12-07T03:35:34;10.23;;;7.50;;
54835;SDS011;43486;43.574;1.476;2022-12-07T03:39:07;15.57;;;9.05;;
54835;SDS011;43486;43.574;1.476;2022-12-07T03:41:26;15.30;;;8.73;;
54835;SDS011;43486;43.574;1.476;2022-12-07T03:43:54;17.27;;;8.23;;
54835;SDS011;43486;43.574;1.476;2022-12-07T03:54:29;14.43;;;8.90;;
54835;SDS011;43486;43.574;1.476;2022-12-07T03:56:57;11.90;;;7.70;;
54835;SDS011;43486;43.574;1.476;2022-12-07T03:59:23;15.57;;;8.05;;
54835;SDS011;43486;43.574;1.476;2022-12-07T04:01:53;15.63;;;9.45;;
54835;SDS011;43486;43.574;1.476;2022-12-07T04:04:21;17.15;;;9.63;;
54835;SDS011;43486;43.574;1.476;2022-12-07T04:06:48;13.73;;;8.35;;
54835;SDS011;43486;43.574;1.476;2022-12-07T04:09:13;15.25;;;9.13;;
54835;SDS011;43486;43.574;1.476;2022-12-07T04:11:39;17.25;;;9.55;;
54835;SDS011;43486;43.574;1.476;2022-12-07T04:14:05;15.27;;;8.82;;
54835;SDS011;43486;43.574;1.476;2022-12-07T04:16:55;12.73;;;8.93;;
54835;SDS011;43486;43.574;1.476;2022-12-07T04:19:22;14.75;;;8.57;;
54835;SDS011;43486;43.574;1.476;2022-12-07T04:21:49;16.10;;;9.20;;
54835;SDS011;43486;43.574;1.476;2022-12-07T04:24:14;14.95;;;9.20;;
54835;SDS011;43486;43.574;1.476;2022-12-07T04:26:41;14.98;;;9.95;;
54835;SDS011;43486;43.574;1.476;2022-12-07T04:29:07;14.40;;;9.45;;
54835;SDS011;43486;43.574;1.476;2022-12-07T04:31:33;17.35;;;9.95;;
54835;SDS011;43486;43.574;1.476;2022-12-07T04:33:59;17.20;;;9.25;;
54835;SDS011;43486;43.574;1.476;2022-12-07T04:36:25;17.27;;;7.95;;
54835;SDS011;43486;43.574;1.476;2022-12-07T04:38:52;19.15;;;8.80;;
54835;SDS011;43486;43.574;1.476;2022-12-07T04:41:18;13.95;;;8.98;;
54835;SDS011;43486;43.574;1.476;2022-12-07T04:43:43;16.23;;;9.52;;
54835;SDS011;43486;43.574;1.476;2022-12-07T04:46:09;13.00;;;9.07;;
54835;SDS011;43486;43.574;1.476;2022-12-07T04:48:34;13.77;;;9.40;;
54835;SDS011;43486;43.574;1.476;2022-12-07T04:50:59;16.10;;;9.70;;
54835;SDS011;43486;43.574;1.476;2022-12-07T04:53:25;12.73;;;8.43;;
54835;SDS011;43486;43.574;1.476;2022-12-07T04:55:50;18.80;;;10.50;;
54835;SDS011;43486;43.574;1.476;2022-12-07T04:58:16;18.85;;;9.35;;
54835;SDS011;43486;43.574;1.476;2022-12-07T05:00:41;14.20;;;9.88;;
54835;SDS011;43486;43.574;1.476;2022-12-07T05:03:06;21.92;;;10.88;;
54835;SDS011;43486;43.574;1.476;2022-12-07T05:05:32;18.25;;;11.07;;
54835;SDS011;43486;43.574;1.476;2022-12-07T05:07:57;13.82;;;9.60;;
54835;SDS011;43486;43.574;1.476;2022-12-07T05:10:22;23.33;;;11.15;;
54835;SDS011;43486;43.574;1.476;2022-12-07T05:12:48;15.43;;;8.95;;
54835;SDS011;43486;43.574;1.476;2022-12-07T05:15:14;19.05;;;9.80;;
54835;SDS011;43486;43.574;1.476;2022-12-07T05:17:40;18.17;;;10.05;;
54835;SDS011;43486;43.574;1.476;2022-12-07T05:20:06;17.15;;;10.52;;
54835;SDS011;43486;43.574;1.476;2022-12-07T05:22:32;14.70;;;11.02;;
54835;SDS011;43486;43.574;1.476;2022-12-07T05:24:58;13.02;;;9.25;;
54835;SDS011;43486;43.574;1.476;2022-12-07T05:27:23;17.08;;;8.95;;
54835;SDS011;43486;43.574;1.476;2022-12-07T05:29:49;17.67;;;11.45;;
54835;SDS011;43486;43.574;1.476;2022-12-07T05:32:15;18.02;;;10.65;;
54835;SDS011;43486;43.574;1.476;2022-12-07T05:34:40;19.40;;;10.55;;
54835;SDS011;43486;43.574;1.476;2022-12-07T05:37:06;20.75;;;11.05;;
54835;SDS011;43486;43.574;1.476;2022-12-07T05:39:31;17.77;;;11.32;;
54835;SDS011;43486;43.574;1.476;2022-12-07T05:41:57;17.58;;;10.18;;
54835;SDS011;43486;43.574;1.476;2022-12-07T05:44:37;15.40;;;10.35;;
54835;SDS011;43486;43.574;1.476;2022-12-07T05:47:03;15.57;;;9.63;;
54835;SDS011;43486;43.574;1.476;2022-12-07T05:49:28;20.13;;;11.57;;
54835;SDS011;43486;43.574;1.476;2022-12-07T05:51:54;17.30;;;11.15;;
54835;SDS011;43486;43.574;1.476;2022-12-07T05:54:19;15.20;;;10.57;;
54835;SDS011;43486;43.574;1.476;2022-12-07T05:56:45;15.90;;;9.93;;
54835;SDS011;43486;43.574;1.476;2022-12-07T05:59:10;22.63;;;11.57;;
54835;SDS011;43486;43.574;1.476;2022-12-07T06:01:51;17.20;;;10.32;;
54835;SDS011;43486;43.574;1.476;2022-12-07T06:04:44;18.45;;;10.82;;
54835;SDS011;43486;43.574;1.476;2022-12-07T06:07:11;17.23;;;11.93;;
54835;SDS011;43486;43.574;1.476;2022-12-07T06:09:38;16.05;;;10.57;;
54835;SDS011;43486;43.574;1.476;2022-12-07T06:12:03;15.93;;;10.23;;
54835;SDS011;43486;43.574;1.476;2022-12-07T06:14:47;17.58;;;11.65;;
54835;SDS011;43486;43.574;1.476;2022-12-07T06:17:13;23.17;;;12.68;;
54835;SDS011;43486;43.574;1.476;2022-12-07T06:19:38;13.27;;;9.85;;
54835;SDS011;43486;43.574;1.476;2022-12-07T06:22:04;24.40;;;11.65;;
54835;SDS011;43486;43.574;1.476;2022-12-07T06:24:31;16.77;;;10.30;;
54835;SDS011;43486;43.574;1.476;2022-12-07T06:26:57;18.25;;;10.52;;
54835;SDS011;43486;43.574;1.476;2022-12-07T06:29:22;20.42;;;11.90;;
54835;SDS011;43486;43.574;1.476;2022-12-07T06:31:48;19.42;;;10.68;;
54835;SDS011;43486;43.574;1.476;2022-12-07T06:34:14;20.33;;;13.07;;
54835;SDS011;43486;43.574;1.476;2022-12-07T06:36:41;19.30;;;11.70;;
54835;SDS011;43486;43.574;1.476;2022-12-07T06:39:07;18.63;;;10.07;;
54835;SDS011;43486;43.574;1.476;2022-12-07T06:41:34;17.50;;;11.80;;
54835;SDS011;43486;43.574;1.476;2022-12-07T06:44:00;16.02;;;11.82;;
54835;SDS011;43486;43.574;1.476;2022-12-07T06:46:26;22.63;;;11.05;;
54835;SDS011;43486;43.574;1.476;2022-12-07T06:48:51;13.77;;;10.85;;
54835;SDS011;43486;43.574;1.476;2022-12-07T06:51:17;18.92;;;10.77;;
54835;SDS011;43486;43.574;1.476;2022-12-07T06:53:42;18.92;;;11.02;;
54835;SDS011;43486;43.574;1.476;2022-12-07T06:56:07;19.25;;;12.00;;
54835;SDS011;43486;43.574;1.476;2022-12-07T06:58:33;17.92;;;12.75;;
54835;SDS011;43486;43.574;1.476;2022-12-07T07:00:58;17.23;;;10.45;;
54835;SDS011;43486;43.574;1.476;2022-12-07T07:03:24;16.02;;;10.90;;
54835;SDS011;43486;43.574;1.476;2022-12-07T07:05:49;18.45;;;10.10;;
54835;SDS011;43486;43.574;1.476;2022-12-07T07:08:14;15.45;;;10.82;;
54835;SDS011;43486;43.574;1.476;2022-12-07T07:10:40;20.50;;;11.13;;
54835;SDS011;43486;43.574;1.476;2022-12-07T07:13:06;16.20;;;9.65;;
54835;SDS011;43486;43.574;1.476;2022-12-07T07:15:32;21.35;;;11.00;;
54835;SDS011;43486;43.574;1.476;2022-12-07T07:17:57;19.58;;;11.20;;
54835;SDS011;43486;43.574;1.476;2022-12-07T07:20:23;18.50;;;11.25;;
54835;SDS011;43486;43.574;1.476;2022-12-07T07:22:49;15.68;;;9.43;;
54835;SDS011;43486;43.574;1.476;2022-12-07T07:25:14;14.18;;;8.68;;
54835;SDS011;43486;43.574;1.476;2022-12-07T07:27:40;14.75;;;8.77;;
54835;SDS011;43486;43.574;1.476;2022-12-07T07:30:06;18.45;;;9.85;;
54835;SDS011;43486;43.574;1.476;2022-12-07T07:32:32;12.85;;;9.13;;
54835;SDS011;43486;43.574;1.476;2022-12-07T07:34:57;17.23;;;10.27;;
54835;SDS011;43486;43.574;1.476;2022-12-07T07:37:23;14.95;;;8.52;;
54835;SDS011;43486;43.574;1.476;2022-12-07T07:39:48;14.65;;;10.25;;
54835;SDS011;43486;43.574;1.476;2022-12-07T07:42:14;18.75;;;9.27;;
54835;SDS011;43486;43.574;1.476;2022-12-07T07:44:39;11.95;;;9.07;;
54835;SDS011;43486;43.574;1.476;2022-12-07T07:47:04;17.38;;;10.38;;
54835;SDS011;43486;43.574;1.476;2022-12-07T07:49:30;19.75;;;9.13;;
54835;SDS011;43486;43.574;1.476;2022-12-07T07:51:55;17.80;;;9.73;;
54835;SDS011;43486;43.574;1.476;2022-12-07T07:54:21;13.15;;;8.70;;
54835;SDS011;43486;43.574;1.476;2022-12-07T07:56:46;14.60;;;8.82;;
54835;SDS011;43486;43.574;1.476;2022-12-07T07:59:12;17.13;;;10.32;;
54835;SDS011;43486;43.574;1.476;2022-12-07T08:01:37;19.40;;;10.18;;
54835;SDS011;43486;43.574;1.476;2022-12-07T08:04:02;17.42;;;8.82;;
54835;SDS011;43486;43.574;1.476;2022-12-07T08:06:28;19.25;;;10.55;;
54835;SDS011;43486;43.574;1.476;2022-12-07T08:08:53;17.15;;;9.80;;
54835;SDS011;43486;43.574;1.476;2022-12-07T08:11:19;16.02;;;9.30;;
54835;SDS011;43486;43.574;1.476;2022-12-07T08:13:45;21.00;;;12.38;;
54835;SDS011;43486;43.574;1.476;2022-12-07T08:16:11;14.25;;;9.63;;
54835;SDS011;43486;43.574;1.476;2022-12-07T08:18:38;14.80;;;9.57;;
54835;SDS011;43486;43.574;1.476;2022-12-07T08:21:04;22.80;;;11.30;;
54835;SDS011;43486;43.574;1.476;2022-12-07T08:23:31;13.45;;;9.48;;
54835;SDS011;43486;43.574;1.476;2022-12-07T08:26:01;14.05;;;9.38;;
54835;SDS011;43486;43.574;1.476;2022-12-07T08:28:27;17.63;;;10.93;;
54835;SDS011;43486;43.574;1.476;2022-12-07T08:30:58;12.15;;;8.48;;
54835;SDS011;43486;43.574;1.476;2022-12-07T08:33:25;18.85;;;11.75;;
54835;SDS011;43486;43.574;1.476;2022-12-07T08:35:51;19.73;;;9.10;;
54835;SDS011;43486;43.574;1.476;2022-12-07T08:38:16;19.23;;;10.90;;
54835;SDS011;43486;43.574;1.476;2022-12-07T08:40:42;17.40;;;9.50;;
54835;SDS011;43486;43.574;1.476;2022-12-07T08:43:07;15.10;;;9.32;;
54835;SDS011;43486;43.574;1.476;2022-12-07T08:45:32;17.08;;;8.60;;
54835;SDS011;43486;43.574;1.476;2022-12-07T08:48:06;14.05;;;9.50;;
54835;SDS011;43486;43.574;1.476;2022-12-07T08:50:35;17.30;;;10.05;;
54835;SDS011;43486;43.574;1.476;2022-12-07T08:53:01;15.27;;;9.75;;
54835;SDS011;43486;43.574;1.476;2022-12-07T08:55:27;13.65;;;9.40;;
54835;SDS011;43486;43.574;1.476;2022-12-07T08:57:54;18.05;;;11.23;;
54835;SDS011;43486;43.574;1.476;2022-12-07T09:00:19;20.23;;;9.70;;
54835;SDS011;43486;43.574;1.476;2022-12-07T09:02:45;19.95;;;10.95;;
54835;SDS011;43486;43.574;1.476;2022-12-07T09:05:11;15.38;;;9.98;;
54835;SDS011;43486;43.574;1.476;2022-12-07T09:07:37;16.77;;;9.95;;
54835;SDS011;43486;43.574;1.476;2022-12-07T09:10:04;14.30;;;10.50;;
54835;SDS011;43486;43.574;1.476;2022-12-07T09:12:30;16.75;;;9.90;;
54835;SDS011;43486;43.574;1.476;2022-12-07T09:14:55;23.73;;;9.77;;
54835;SDS011;43486;43.574;1.476;2022-12-07T09:17:20;17.75;;;10.68;;
54835;SDS011;43486;43.574;1.476;2022-12-07T09:19:46;15.02;;;9.43;;
54835;SDS011;43486;43.574;1.476;2022-12-07T09:22:11;15.98;;;10.90;;
54835;SDS011;43486;43.574;1.476;2022-12-07T09:24:37;18.17;;;10.27;;
54835;SDS011;43486;43.574;1.476;2022-12-07T09:27:02;16.60;;;8.63;;
54835;SDS011;43486;43.574;1.476;2022-12-07T09:29:28;16.88;;;10.65;;
54835;SDS011;43486;43.574;1.476;2022-12-07T09:31:53;16.90;;;10.35;;
54835;SDS011;43486;43.574;1.476;2022-12-07T09:34:19;17.77;;;9.90;;
54835;SDS011;43486;43.574;1.476;2022-12-07T09:36:45;18.77;;;9.60;;
54835;SDS011;43486;43.574;1.476;2022-12-07T09:39:10;15.85;;;9.32;;
54835;SDS011;43486;43.574;1.476;2022-12-07T09:41:42;18.45;;;11.05;;
54835;SDS011;43486;43.574;1.476;2022-12-07T09:44:12;15.70;;;10.75;;
54835;SDS011;43486;43.574;1.476;2022-12-07T09:46:42;20.67;;;9.63;;
54835;SDS011;43486;43.574;1.476;2022-12-07T09:49:12;14.35;;;9.45;;
54835;SDS011;43486;43.574;1.476;2022-12-07T09:51:41;17.52;;;9.85;;
54835;SDS011;43486;43.574;1.476;2022-12-07T09:54:07;15.57;;;11.18;;
54835;SDS011;43486;43.574;1.476;2022-12-07T09:56:33;14.02;;;10.65;;
54835;SDS011;43486;43.574;1.476;2022-12-07T09:58:59;14.48;;;9.70;;
54835;SDS011;43486;43.574;1.476;2022-12-07T10:01:27;24.55;;;12.80;;
54835;SDS011;43486;43.574;1.476;2022-12-07T10:03:56;17.17;;;10.07;;
54835;SDS011;43486;43.574;1.476;2022-12-07T10:06:26;13.77;;;9.95;;
54835;SDS011;43486;43.574;1.476;2022-12-07T10:08:51;19.38;;;13.57;;
54835;SDS011;43486;43.574;1.476;2022-12-07T10:11:17;25.33;;;14.60;;
54835;SDS011;43486;43.574;1.476;2022-12-07T10:13:43;24.30;;;13.23;;
54835;SDS011;43486;43.574;1.476;2022-12-07T10:18:48;26.50;;;13.63;;
54835;SDS011;43486;43.574;1.476;2022-12-07T10:21:15;18.48;;;10.50;;
54835;SDS011;43486;43.574;1.476;2022-12-07T10:26:30;20.60;;;10.65;;
54835;SDS011;43486;43.574;1.476;2022-12-07T10:29:01;23.55;;;9.60;;
54835;SDS011;43486;43.574;1.476;2022-12-07T10:31:38;13.38;;;8.73;;
54835;SDS011;43486;43.574;1.476;2022-12-07T10:34:12;15.02;;;9.05;;
54835;SDS011;43486;43.574;1.476;2022-12-07T10:36:46;12.98;;;8.77;;
54835;SDS011;43486;43.574;1.476;2022-12-07T10:39:18;11.57;;;8.95;;
54835;SDS011;43486;43.574;1.476;2022-12-07T10:42:00;11.88;;;7.25;;
54835;SDS011;43486;43.574;1.476;2022-12-07T10:44:33;12.60;;;8.30;;
54835;SDS011;43486;43.574;1.476;2022-12-07T11:01:31;16.60;;;8.70;;
54835;SDS011;43486;43.574;1.476;2022-12-07T11:06:57;13.95;;;8.13;;
54835;SDS011;43486;43.574;1.476;2022-12-07T11:15:12;27.20;;;18.20;;
54835;SDS011;43486;43.574;1.476;2022-12-07T11:24:01;53.65;;;19.08;;
54835;SDS011;43486;43.574;1.476;2022-12-07T11:26:50;23.02;;;16.63;;
54835;SDS011;43486;43.574;1.476;2022-12-07T11:35:19;27.55;;;16.77;;
54835;SDS011;43486;43.574;1.476;2022-12-07T11:37:50;28.17;;;16.35;;
54835;SDS011;43486;43.574;1.476;2022-12-07T11:40:25;24.50;;;17.30;;
54835;SDS011;43486;43.574;1.476;2022-12-07T11:45:25;17.30;;;12.52;;
54835;SDS011;43486;43.574;1.476;2022-12-07T11:47:56;22.35;;;11.02;;
54835;SDS011;43486;43.574;1.476;2022-12-07T12:01:14;22.13;;;10.98;;
54835;SDS011;43486;43.574;1.476;2022-12-07T12:03:48;20.33;;;11.32;;
54835;SDS011;43486;43.574;1.476;2022-12-07T12:06:16;18.02;;;12.00;;
54835;SDS011;43486;43.574;1.476;2022-12-07T12:08:53;26.10;;;13.70;;
54835;SDS011;43486;43.574;1.476;2022-12-07T12:19:37;30.83;;;10.30;;
54835;SDS011;43486;43.574;1.476;2022-12-07T12:22:17;16.95;;;10.40;;
54835;SDS011;43486;43.574;1.476;2022-12-07T12:24:44;17.83;;;11.05;;
54835;SDS011;43486;43.574;1.476;2022-12-07T12:27:18;14.63;;;9.75;;
54835;SDS011;43486;43.574;1.476;2022-12-07T12:29:54;21.60;;;11.52;;
54835;SDS011;43486;43.574;1.476;2022-12-07T12:32:21;14.32;;;9.02;;
54835;SDS011;43486;43.574;1.476;2022-12-07T12:37:46;13.45;;;9.35;;
54835;SDS011;43486;43.574;1.476;2022-12-07T12:42:47;21.75;;;9.82;;
54835;SDS011;43486;43.574;1.476;2022-12-07T12:48:37;14.27;;;8.27;;
54835;SDS011;43486;43.574;1.476;2022-12-07T12:51:35;14.68;;;8.27;;
54835;SDS011;43486;43.574;1.476;2022-12-07T12:54:04;15.52;;;8.27;;
54835;SDS011;43486;43.574;1.476;2022-12-07T12:56:35;12.65;;;6.47;;
54835;SDS011;43486;43.574;1.476;2022-12-07T12:59:36;9.38;;;6.38;;
54835;SDS011;43486;43.574;1.476;2022-12-07T13:15:37;12.27;;;6.70;;
54835;SDS011;43486;43.574;1.476;2022-12-07T13:28:39;17.85;;;6.97;;
54835;SDS011;43486;43.574;1.476;2022-12-07T13:33:55;9.05;;;5.30;;
54835;SDS011;43486;43.574;1.476;2022-12-07T13:36:31;13.70;;;5.35;;
54835;SDS011;43486;43.574;1.476;2022-12-07T13:39:10;12.93;;;5.75;;
54835;SDS011;43486;43.574;1.476;2022-12-07T13:41:41;11.38;;;6.53;;
54835;SDS011;43486;43.574;1.476;2022-12-07T13:44:16;7.20;;;4.82;;
54835;SDS011;43486;43.574;1.476;2022-12-07T13:47:00;9.20;;;4.68;;
54835;SDS011;43486;43.574;1.476;2022-12-07T13:49:33;9.23;;;5.35;;
54835;SDS011;43486;43.574;1.476;2022-12-07T13:54:45;8.32;;;5.47;;
54835;SDS011;43486;43.574;1.476;2022-12-07T13:57:11;11.23;;;5.47;;
54835;SDS011;43486;43.574;1.476;2022-12-07T13:59:37;16.15;;;5.88;;
54835;SDS011;43486;43.574;1.476;2022-12-07T14:02:16;8.13;;;5.57;;
54835;SDS011;43486;43.574;1.476;2022-12-07T14:05:08;12.23;;;6.30;;
54835;SDS011;43486;43.574;1.476;2022-12-07T14:07:35;12.98;;;5.78;;
54835;SDS011;43486;43.574;1.476;2022-12-07T14:10:04;9.15;;;5.07;;
54835;SDS011;43486;43.574;1.476;2022-12-07T14:12:31;11.73;;;5.25;;
54835;SDS011;43486;43.574;1.476;2022-12-07T14:14:58;8.40;;;5.68;;
54835;SDS011;43486;43.574;1.476;2022-12-07T14:17:25;11.15;;;5.15;;
54835;SDS011;43486;43.574;1.476;2022-12-07T14:19:55;9.60;;;5.32;;
54835;SDS011;43486;43.574;1.476;2022-12-07T14:22:32;10.90;;;5.85;;
54835;SDS011;43486;43.574;1.476;2022-12-07T14:27:30;9.32;;;4.65;;
54835;SDS011;43486;43.574;1.476;2022-12-07T14:29:58;10.77;;;5.00;;
54835;SDS011;43486;43.574;1.476;2022-12-07T14:32:28;8.57;;;4.63;;
54835;SDS011;43486;43.574;1.476;2022-12-07T14:35:03;11.30;;;5.97;;
54835;SDS011;43486;43.574;1.476;2022-12-07T14:37:35;11.60;;;5.35;;
54835;SDS011;43486;43.574;1.476;2022-12-07T14:40:01;10.65;;;5.90;;
54835;SDS011;43486;43.574;1.476;2022-12-07T14:42:28;6.28;;;3.47;;
54835;SDS011;43486;43.574;1.476;2022-12-07T14:44:54;9.85;;;5.28;;
54835;SDS011;43486;43.574;1.476;2022-12-07T14:47:19;8.85;;;4.45;;
54835;SDS011;43486;43.574;1.476;2022-12-07T14:49:45;9.07;;;5.68;;
54835;SDS011;43486;43.574;1.476;2022-12-07T14:52:25;7.07;;;4.60;;
54835;SDS011;43486;43.574;1.476;2022-12-07T14:54:52;10.63;;;4.00;;
54835;SDS011;43486;43.574;1.476;2022-12-07T14:57:17;8.43;;;4.53;;
54835;SDS011;43486;43.574;1.476;2022-12-07T14:59:43;6.78;;;4.13;;
54835;SDS011;43486;43.574;1.476;2022-12-07T15:02:09;6.93;;;4.38;;
54835;SDS011;43486;43.574;1.476;2022-12-07T15:04:37;6.90;;;4.97;;
54835;SDS011;43486;43.574;1.476;2022-12-07T15:07:03;7.95;;;4.55;;
54835;SDS011;43486;43.574;1.476;2022-12-07T15:09:30;11.38;;;5.03;;
54835;SDS011;43486;43.574;1.476;2022-12-07T15:11:56;11.18;;;5.00;;
54835;SDS011;43486;43.574;1.476;2022-12-07T15:14:21;9.02;;;5.20;;
54835;SDS011;43486;43.574;1.476;2022-12-07T15:16:46;8.10;;;4.30;;
54835;SDS011;43486;43.574;1.476;2022-12-07T15:19:13;15.32;;;4.70;;
54835;SDS011;43486;43.574;1.476;2022-12-07T15:21:40;10.60;;;5.22;;
54835;SDS011;43486;43.574;1.476;2022-12-07T15:24:06;8.32;;;4.63;;
54835;SDS011;43486;43.574;1.476;2022-12-07T15:26:34;10.93;;;4.35;;
54835;SDS011;43486;43.574;1.476;2022-12-07T15:28:59;7.65;;;4.22;;
54835;SDS011;43486;43.574;1.476;2022-12-07T15:31:24;8.07;;;3.58;;
54835;SDS011;43486;43.574;1.476;2022-12-07T15:33:50;9.15;;;4.80;;
54835;SDS011;43486;43.574;1.476;2022-12-07T15:36:26;8.15;;;4.68;;
54835;SDS011;43486;43.574;1.476;2022-12-07T15:38:52;7.45;;;3.88;;
54835;SDS011;43486;43.574;1.476;2022-12-07T15:41:18;7.47;;;3.72;;
54835;SDS011;43486;43.574;1.476;2022-12-07T15:43:43;8.88;;;4.45;;
54835;SDS011;43486;43.574;1.476;2022-12-07T15:46:31;8.25;;;3.78;;
54835;SDS011;43486;43.574;1.476;2022-12-07T15:48:58;8.02;;;4.55;;
54835;SDS011;43486;43.574;1.476;2022-12-07T15:51:23;8.02;;;4.30;;
54835;SDS011;43486;43.574;1.476;2022-12-07T15:53:49;7.82;;;4.00;;
54835;SDS011;43486;43.574;1.476;2022-12-07T15:56:15;9.15;;;5.47;;
54835;SDS011;43486;43.574;1.476;2022-12-07T15:58:40;8.88;;;5.90;;
54835;SDS011;43486;43.574;1.476;2022-12-07T16:01:16;7.60;;;4.95;;
54835;SDS011;43486;43.574;1.476;2022-12-07T16:03:43;7.30;;;4.40;;
54835;SDS011;43486;43.574;1.476;2022-12-07T16:06:09;8.30;;;4.40;;
54835;SDS011;43486;43.574;1.476;2022-12-07T16:08:35;9.23;;;5.05;;
54835;SDS011;43486;43.574;1.476;2022-12-07T16:11:04;11.70;;;4.90;;
54835;SDS011;43486;43.574;1.476;2022-12-07T16:13:33;12.57;;;5.15;;
54835;SDS011;43486;43.574;1.476;2022-12-07T16:16:01;9.40;;;4.68;;
54835;SDS011;43486;43.574;1.476;2022-12-07T16:18:31;8.00;;;4.00;;
54835;SDS011;43486;43.574;1.476;2022-12-07T16:20:56;10.18;;;4.65;;
54835;SDS011;43486;43.574;1.476;2022-12-07T16:23:21;12.18;;;4.95;;
54835;SDS011;43486;43.574;1.476;2022-12-07T16:25:47;8.57;;;4.70;;
54835;SDS011;43486;43.574;1.476;2022-12-07T16:28:12;9.30;;;4.28;;
54835;SDS011;43486;43.574;1.476;2022-12-07T16:30:38;7.40;;;4.15;;
54835;SDS011;43486;43.574;1.476;2022-12-07T16:33:03;8.85;;;4.93;;
54835;SDS011;43486;43.574;1.476;2022-12-07T16:35:29;8.63;;;4.75;;
54835;SDS011;43486;43.574;1.476;2022-12-07T16:37:54;9.57;;;4.65;;
54835;SDS011;43486;43.574;1.476;2022-12-07T16:40:20;8.25;;;4.63;;
54835;SDS011;43486;43.574;1.476;2022-12-07T16:42:45;9.23;;;4.78;;
54835;SDS011;43486;43.574;1.476;2022-12-07T16:45:11;9.75;;;5.80;;
54835;SDS011;43486;43.574;1.476;2022-12-07T16:47:37;7.88;;;4.35;;
54835;SDS011;43486;43.574;1.476;2022-12-07T16:50:03;11.23;;;3.80;;
54835;SDS011;43486;43.574;1.476;2022-12-07T16:52:29;9.75;;;4.28;;
54835;SDS011;43486;43.574;1.476;2022-12-07T16:54:54;5.97;;;3.70;;
54835;SDS011;43486;43.574;1.476;2022-12-07T16:57:20;8.25;;;4.82;;
54835;SDS011;43486;43.574;1.476;2022-12-07T16:59:45;7.65;;;4.28;;
54835;SDS011;43486;43.574;1.476;2022-12-07T17:02:11;7.93;;;4.32;;